sensor_id;sensor_type;location;lat;lon;timestamp;pressure;altitude;pressure_sealevel;temperature;humidity
27144;BME280;14672;50.250;8.312;2022-07-10T00:00:17;99630.94;;;17.23;64.86
27144;BME280;14672;50.250;8.312;2022-07-10T00:02:46;99632.22;;;17.22;65.46
27144;BME280;14672;50.250;8.312;2022-07-10T00:05:12;99628.41;;;17.16;65.76
27144;BME280;14672;50.250;8.312;2022-07-10T00:07:39;99630.97;;;17.14;65.44
27144;BME280;14672;50.250;8.312;2022-07-10T00:10:06;99636.41;;;17.12;65.44
27144;BME280;14672;50.250;8.312;2022-07-10T00:12:32;99637.97;;;17.13;65.22
27144;BME280;14672;50.250;8.312;2022-07-10T00:14:58;99629.44;;;17.04;66.07
27144;BME280;14672;50.250;8.312;2022-07-10T00:17:25;99631.31;;;17.07;65.20
27144;BME280;14672;50.250;8.312;2022-07-10T00:19:51;99630.25;;;16.95;65.50
27144;BME280;14672;50.250;8.312;2022-07-10T00:22:17;99637.09;;;16.98;65.30
27144;BME280;14672;50.250;8.312;2022-07-10T00:24:43;99629.31;;;16.89;65.52
27144;BME280;14672;50.250;8.312;2022-07-10T00:27:09;99629.94;;;16.93;65.82
27144;BME280;14672;50.250;8.312;2022-07-10T00:29:35;99631.56;;;16.85;66.52
27144;BME280;14672;50.250;8.312;2022-07-10T00:32:01;99635.06;;;16.89;66.09
27144;BME280;14672;50.250;8.312;2022-07-10T00:34:27;99627.56;;;16.92;66.12
27144;BME280;14672;50.250;8.312;2022-07-10T00:36:53;99637.47;;;16.81;66.57
27144;BME280;14672;50.250;8.312;2022-07-10T00:39:19;99631.88;;;16.87;67.01
27144;BME280;14672;50.250;8.312;2022-07-10T00:41:45;99635.84;;;16.89;66.63
27144;BME280;14672;50.250;8.312;2022-07-10T00:44:10;99628.50;;;16.88;66.12
27144;BME280;14672;50.250;8.312;2022-07-10T00:46:36;99629.31;;;16.89;65.93
27144;BME280;14672;50.250;8.312;2022-07-10T00:49:03;99636.31;;;16.88;66.20
27144;BME280;14672;50.250;8.312;2022-07-10T00:51:30;99642.25;;;16.84;65.91
27144;BME280;14672;50.250;8.312;2022-07-10T00:53:57;99641.44;;;16.84;65.81
27144;BME280;14672;50.250;8.312;2022-07-10T00:56:25;99643.09;;;16.76;66.14
27144;BME280;14672;50.250;8.312;2022-07-10T00:58:52;99642.91;;;16.79;66.20
27144;BME280;14672;50.250;8.312;2022-07-10T01:01:19;99650.38;;;16.86;67.01
27144;BME280;14672;50.250;8.312;2022-07-10T01:03:46;99653.41;;;16.82;67.28
27144;BME280;14672;50.250;8.312;2022-07-10T01:06:16;99642.75;;;16.83;67.67
27144;BME280;14672;50.250;8.312;2022-07-10T01:08:44;99644.94;;;16.88;67.57
27144;BME280;14672;50.250;8.312;2022-07-10T01:11:12;99646.88;;;16.82;67.18
27144;BME280;14672;50.250;8.312;2022-07-10T01:13:39;99638.56;;;16.84;67.14
27144;BME280;14672;50.250;8.312;2022-07-10T01:16:05;99634.88;;;16.92;66.99
27144;BME280;14672;50.250;8.312;2022-07-10T01:18:31;99631.50;;;17.03;66.26
27144;BME280;14672;50.250;8.312;2022-07-10T01:20:57;99625.69;;;17.12;66.31
27144;BME280;14672;50.250;8.312;2022-07-10T01:23:23;99621.88;;;17.15;65.84
27144;BME280;14672;50.250;8.312;2022-07-10T01:25:50;99622.53;;;17.10;65.92
27144;BME280;14672;50.250;8.312;2022-07-10T01:28:17;99624.31;;;17.08;66.13
27144;BME280;14672;50.250;8.312;2022-07-10T01:30:44;99617.84;;;17.22;65.22
27144;BME280;14672;50.250;8.312;2022-07-10T01:33:10;99617.50;;;17.29;65.25
27144;BME280;14672;50.250;8.312;2022-07-10T01:35:36;99628.78;;;17.32;64.93
27144;BME280;14672;50.250;8.312;2022-07-10T01:38:02;99638.81;;;17.37;64.75
27144;BME280;14672;50.250;8.312;2022-07-10T01:40:28;99628.97;;;17.29;65.06
27144;BME280;14672;50.250;8.312;2022-07-10T01:42:54;99620.09;;;17.18;65.11
27144;BME280;14672;50.250;8.312;2022-07-10T01:45:20;99626.81;;;17.15;65.23
27144;BME280;14672;50.250;8.312;2022-07-10T01:47:46;99637.00;;;17.16;65.53
27144;BME280;14672;50.250;8.312;2022-07-10T01:50:12;99628.06;;;17.23;64.76
27144;BME280;14672;50.250;8.312;2022-07-10T01:52:38;99638.72;;;17.31;64.23
27144;BME280;14672;50.250;8.312;2022-07-10T01:55:05;99632.78;;;17.35;63.92
27144;BME280;14672;50.250;8.312;2022-07-10T01:57:32;99629.59;;;17.33;64.03
27144;BME280;14672;50.250;8.312;2022-07-10T01:59:58;99630.53;;;17.39;63.50
27144;BME280;14672;50.250;8.312;2022-07-10T02:02:24;99632.78;;;17.35;64.09
27144;BME280;14672;50.250;8.312;2022-07-10T02:04:50;99626.06;;;17.38;64.07
27144;BME280;14672;50.250;8.312;2022-07-10T02:07:18;99633.94;;;17.52;63.44
27144;BME280;14672;50.250;8.312;2022-07-10T02:09:47;99624.69;;;17.57;63.13
27144;BME280;14672;50.250;8.312;2022-07-10T02:12:14;99624.22;;;17.59;62.82
27144;BME280;14672;50.250;8.312;2022-07-10T02:14:41;99615.69;;;17.64;62.83
27144;BME280;14672;50.250;8.312;2022-07-10T02:17:08;99614.44;;;17.56;62.68
27144;BME280;14672;50.250;8.312;2022-07-10T02:19:35;99620.03;;;17.60;62.00
27144;BME280;14672;50.250;8.312;2022-07-10T02:22:01;99624.72;;;17.48;62.85
27144;BME280;14672;50.250;8.312;2022-07-10T02:24:27;99619.22;;;17.35;63.67
27144;BME280;14672;50.250;8.312;2022-07-10T02:26:53;99617.44;;;17.38;63.12
27144;BME280;14672;50.250;8.312;2022-07-10T02:29:20;99627.09;;;17.26;63.83
27144;BME280;14672;50.250;8.312;2022-07-10T02:31:49;99625.00;;;17.26;63.68
27144;BME280;14672;50.250;8.312;2022-07-10T02:34:15;99624.16;;;17.35;63.07
27144;BME280;14672;50.250;8.312;2022-07-10T02:36:41;99623.22;;;17.29;62.43
27144;BME280;14672;50.250;8.312;2022-07-10T02:39:08;99618.22;;;17.15;63.26
27144;BME280;14672;50.250;8.312;2022-07-10T02:41:35;99622.75;;;17.30;62.43
27144;BME280;14672;50.250;8.312;2022-07-10T02:44:02;99623.78;;;17.18;62.28
27144;BME280;14672;50.250;8.312;2022-07-10T02:46:31;99630.44;;;17.24;61.74
27144;BME280;14672;50.250;8.312;2022-07-10T02:48:56;99624.56;;;17.19;61.76
27144;BME280;14672;50.250;8.312;2022-07-10T02:51:22;99624.25;;;17.17;61.87
27144;BME280;14672;50.250;8.312;2022-07-10T02:53:48;99618.88;;;17.10;61.63
27144;BME280;14672;50.250;8.312;2022-07-10T02:56:14;99627.63;;;17.15;61.77
27144;BME280;14672;50.250;8.312;2022-07-10T02:58:40;99620.41;;;17.20;61.28
27144;BME280;14672;50.250;8.312;2022-07-10T03:01:05;99622.78;;;17.21;60.87
27144;BME280;14672;50.250;8.312;2022-07-10T03:03:32;99628.72;;;17.18;60.70
27144;BME280;14672;50.250;8.312;2022-07-10T03:05:59;99622.34;;;17.14;60.88
27144;BME280;14672;50.250;8.312;2022-07-10T03:08:25;99634.81;;;17.11;60.74
27144;BME280;14672;50.250;8.312;2022-07-10T03:10:50;99629.25;;;17.07;60.59
27144;BME280;14672;50.250;8.312;2022-07-10T03:13:16;99626.94;;;16.87;60.88
27144;BME280;14672;50.250;8.312;2022-07-10T03:15:42;99624.72;;;16.82;61.04
27144;BME280;14672;50.250;8.312;2022-07-10T03:18:08;99629.06;;;16.69;61.66
27144;BME280;14672;50.250;8.312;2022-07-10T03:20:34;99620.94;;;16.67;61.54
27144;BME280;14672;50.250;8.312;2022-07-10T03:23:00;99628.25;;;16.68;61.29
27144;BME280;14672;50.250;8.312;2022-07-10T03:26:09;99628.59;;;16.61;62.00
27144;BME280;14672;50.250;8.312;2022-07-10T03:28:35;99626.03;;;16.54;61.82
27144;BME280;14672;50.250;8.312;2022-07-10T03:31:01;99632.75;;;16.51;61.85
27144;BME280;14672;50.250;8.312;2022-07-10T03:33:27;99641.19;;;16.36;62.25
27144;BME280;14672;50.250;8.312;2022-07-10T03:35:54;99648.84;;;16.58;61.80
27144;BME280;14672;50.250;8.312;2022-07-10T03:38:20;99641.97;;;16.55;61.42
27144;BME280;14672;50.250;8.312;2022-07-10T03:40:46;99642.47;;;16.63;61.36
27144;BME280;14672;50.250;8.312;2022-07-10T03:43:16;99640.41;;;16.63;60.93
27144;BME280;14672;50.250;8.312;2022-07-10T03:45:42;99646.13;;;16.63;60.87
27144;BME280;14672;50.250;8.312;2022-07-10T03:48:08;99642.13;;;16.61;60.65
27144;BME280;14672;50.250;8.312;2022-07-10T03:50:34;99650.91;;;16.57;60.84
27144;BME280;14672;50.250;8.312;2022-07-10T03:52:59;99645.31;;;16.54;60.86
27144;BME280;14672;50.250;8.312;2022-07-10T03:55:25;99651.22;;;16.50;60.99
27144;BME280;14672;50.250;8.312;2022-07-10T03:57:51;99650.13;;;16.38;60.89
27144;BME280;14672;50.250;8.312;2022-07-10T04:00:25;99649.16;;;16.32;61.19
27144;BME280;14672;50.250;8.312;2022-07-10T04:03:01;99646.31;;;16.23;61.23
27144;BME280;14672;50.250;8.312;2022-07-10T04:05:27;99650.28;;;16.17;61.57
27144;BME280;14672;50.250;8.312;2022-07-10T04:07:54;99642.81;;;16.10;61.92
27144;BME280;14672;50.250;8.312;2022-07-10T04:10:24;99637.88;;;16.02;61.66
27144;BME280;14672;50.250;8.312;2022-07-10T04:12:50;99651.59;;;16.16;61.95
27144;BME280;14672;50.250;8.312;2022-07-10T04:15:17;99663.53;;;16.23;61.31
27144;BME280;14672;50.250;8.312;2022-07-10T04:17:43;99664.97;;;16.28;61.50
27144;BME280;14672;50.250;8.312;2022-07-10T04:20:10;99668.59;;;16.37;61.24
27144;BME280;14672;50.250;8.312;2022-07-10T04:22:37;99664.63;;;16.35;61.36
27144;BME280;14672;50.250;8.312;2022-07-10T04:25:04;99673.25;;;16.44;60.81
27144;BME280;14672;50.250;8.312;2022-07-10T04:27:31;99671.81;;;16.39;61.41
27144;BME280;14672;50.250;8.312;2022-07-10T04:29:57;99679.75;;;16.54;61.16
27144;BME280;14672;50.250;8.312;2022-07-10T04:32:23;99680.75;;;16.60;60.80
27144;BME280;14672;50.250;8.312;2022-07-10T04:34:49;99678.34;;;16.58;61.28
27144;BME280;14672;50.250;8.312;2022-07-10T04:37:16;99685.00;;;16.55;61.33
27144;BME280;14672;50.250;8.312;2022-07-10T04:39:42;99681.69;;;16.57;61.16
27144;BME280;14672;50.250;8.312;2022-07-10T04:42:08;99678.63;;;16.60;61.17
27144;BME280;14672;50.250;8.312;2022-07-10T04:44:35;99681.69;;;16.57;61.43
27144;BME280;14672;50.250;8.312;2022-07-10T04:47:05;99669.69;;;16.49;61.85
27144;BME280;14672;50.250;8.312;2022-07-10T04:49:31;99675.28;;;16.53;62.65
27144;BME280;14672;50.250;8.312;2022-07-10T04:51:58;99675.09;;;16.56;62.33
27144;BME280;14672;50.250;8.312;2022-07-10T04:54:23;99677.03;;;16.68;61.88
27144;BME280;14672;50.250;8.312;2022-07-10T04:56:49;99668.41;;;16.77;62.06
27144;BME280;14672;50.250;8.312;2022-07-10T04:59:15;99670.91;;;16.94;61.83
27144;BME280;14672;50.250;8.312;2022-07-10T05:01:41;99674.13;;;16.96;61.73
27144;BME280;14672;50.250;8.312;2022-07-10T05:04:07;99668.81;;;17.03;61.28
27144;BME280;14672;50.250;8.312;2022-07-10T05:06:34;99674.56;;;17.03;61.34
27144;BME280;14672;50.250;8.312;2022-07-10T05:09:01;99674.03;;;17.14;61.08
27144;BME280;14672;50.250;8.312;2022-07-10T05:11:27;99677.34;;;17.21;61.21
27144;BME280;14672;50.250;8.312;2022-07-10T05:13:53;99672.22;;;17.25;60.87
27144;BME280;14672;50.250;8.312;2022-07-10T05:16:19;99679.75;;;17.23;61.37
27144;BME280;14672;50.250;8.312;2022-07-10T05:18:45;99686.44;;;17.20;61.80
27144;BME280;14672;50.250;8.312;2022-07-10T05:21:12;99692.78;;;17.33;61.11
27144;BME280;14672;50.250;8.312;2022-07-10T05:23:39;99691.81;;;17.36;61.73
27144;BME280;14672;50.250;8.312;2022-07-10T05:26:06;99689.44;;;17.34;61.53
27144;BME280;14672;50.250;8.312;2022-07-10T05:28:32;99684.13;;;17.42;61.87
27144;BME280;14672;50.250;8.312;2022-07-10T05:30:58;99682.25;;;17.39;62.17
27144;BME280;14672;50.250;8.312;2022-07-10T05:33:24;99680.94;;;17.40;61.84
27144;BME280;14672;50.250;8.312;2022-07-10T05:35:52;99681.44;;;17.38;61.78
27144;BME280;14672;50.250;8.312;2022-07-10T05:38:18;99673.44;;;17.43;61.90
27144;BME280;14672;50.250;8.312;2022-07-10T05:40:44;99687.31;;;17.44;62.47
27144;BME280;14672;50.250;8.312;2022-07-10T05:43:10;99689.22;;;17.47;62.01
27144;BME280;14672;50.250;8.312;2022-07-10T05:45:38;99691.59;;;17.58;61.38
27144;BME280;14672;50.250;8.312;2022-07-10T05:48:04;99689.16;;;17.65;61.50
27144;BME280;14672;50.250;8.312;2022-07-10T05:50:30;99688.66;;;17.67;61.25
27144;BME280;14672;50.250;8.312;2022-07-10T05:52:56;99687.50;;;17.73;60.61
27144;BME280;14672;50.250;8.312;2022-07-10T05:55:22;99681.38;;;17.80;60.75
27144;BME280;14672;50.250;8.312;2022-07-10T05:57:49;99693.19;;;17.82;60.76
27144;BME280;14672;50.250;8.312;2022-07-10T06:00:16;99693.19;;;17.82;60.30
27144;BME280;14672;50.250;8.312;2022-07-10T06:02:42;99694.09;;;17.89;60.14
27144;BME280;14672;50.250;8.312;2022-07-10T06:05:09;99695.69;;;17.90;59.88
27144;BME280;14672;50.250;8.312;2022-07-10T06:07:35;99697.59;;;17.93;59.47
27144;BME280;14672;50.250;8.312;2022-07-10T06:10:04;99699.81;;;17.98;59.25
27144;BME280;14672;50.250;8.312;2022-07-10T06:12:31;99700.22;;;18.05;59.23
27144;BME280;14672;50.250;8.312;2022-07-10T06:14:57;99693.88;;;18.01;58.99
27144;BME280;14672;50.250;8.312;2022-07-10T06:17:23;99705.50;;;18.07;58.96
27144;BME280;14672;50.250;8.312;2022-07-10T06:19:49;99706.13;;;18.11;58.93
27144;BME280;14672;50.250;8.312;2022-07-10T06:22:15;99705.31;;;18.10;58.57
27144;BME280;14672;50.250;8.312;2022-07-10T06:25:02;99704.31;;;18.13;58.52
27144;BME280;14672;50.250;8.312;2022-07-10T06:27:28;99709.41;;;18.18;58.36
27144;BME280;14672;50.250;8.312;2022-07-10T06:29:55;99707.94;;;18.23;58.66
27144;BME280;14672;50.250;8.312;2022-07-10T06:32:21;99710.81;;;18.23;57.73
27144;BME280;14672;50.250;8.312;2022-07-10T06:34:48;99705.34;;;18.25;57.28
27144;BME280;14672;50.250;8.312;2022-07-10T06:37:14;99706.28;;;18.31;57.22
27144;BME280;14672;50.250;8.312;2022-07-10T06:39:40;99709.91;;;18.31;57.46
27144;BME280;14672;50.250;8.312;2022-07-10T06:42:06;99704.00;;;18.35;57.16
27144;BME280;14672;50.250;8.312;2022-07-10T06:44:33;99702.41;;;18.34;56.87
27144;BME280;14672;50.250;8.312;2022-07-10T06:46:59;99707.16;;;18.37;56.00
27144;BME280;14672;50.250;8.312;2022-07-10T06:49:46;99707.16;;;18.37;56.08
27144;BME280;14672;50.250;8.312;2022-07-10T06:52:14;99701.00;;;18.29;56.45
27144;BME280;14672;50.250;8.312;2022-07-10T06:54:41;99700.44;;;18.40;55.86
27144;BME280;14672;50.250;8.312;2022-07-10T06:57:07;99700.03;;;18.47;55.81
27144;BME280;14672;50.250;8.312;2022-07-10T06:59:33;99693.94;;;18.54;56.00
27144;BME280;14672;50.250;8.312;2022-07-10T07:02:00;99685.66;;;18.47;56.27
27144;BME280;14672;50.250;8.312;2022-07-10T07:04:26;99687.56;;;18.50;55.95
27144;BME280;14672;50.250;8.312;2022-07-10T07:06:52;99691.88;;;18.55;55.57
27144;BME280;14672;50.250;8.312;2022-07-10T07:09:18;99697.31;;;18.53;55.46
27144;BME280;14672;50.250;8.312;2022-07-10T07:11:43;99694.56;;;18.58;55.11
27144;BME280;14672;50.250;8.312;2022-07-10T07:14:09;99699.13;;;18.65;55.17
27144;BME280;14672;50.250;8.312;2022-07-10T07:16:35;99702.47;;;18.63;55.49
27144;BME280;14672;50.250;8.312;2022-07-10T07:19:12;99702.31;;;18.67;55.23
27144;BME280;14672;50.250;8.312;2022-07-10T07:21:44;99689.41;;;18.62;54.71
27144;BME280;14672;50.250;8.312;2022-07-10T07:24:28;99704.47;;;18.72;54.08
27144;BME280;14672;50.250;8.312;2022-07-10T07:26:54;99698.63;;;18.81;53.81
27144;BME280;14672;50.250;8.312;2022-07-10T07:29:20;99693.75;;;18.87;53.44
27144;BME280;14672;50.250;8.312;2022-07-10T07:31:46;99695.34;;;18.88;53.53
27144;BME280;14672;50.250;8.312;2022-07-10T07:34:12;99706.78;;;18.97;53.63
27144;BME280;14672;50.250;8.312;2022-07-10T07:36:38;99710.47;;;18.98;53.28
27144;BME280;14672;50.250;8.312;2022-07-10T07:39:04;99708.38;;;18.98;52.59
27144;BME280;14672;50.250;8.312;2022-07-10T07:41:30;99718.41;;;19.03;52.23
27144;BME280;14672;50.250;8.312;2022-07-10T07:43:56;99708.25;;;19.07;52.46
27144;BME280;14672;50.250;8.312;2022-07-10T07:46:22;99704.41;;;19.10;53.25
27144;BME280;14672;50.250;8.312;2022-07-10T07:48:49;99715.72;;;19.14;52.26
27144;BME280;14672;50.250;8.312;2022-07-10T07:51:15;99710.25;;;19.16;52.48
27144;BME280;14672;50.250;8.312;2022-07-10T07:53:41;99719.22;;;19.18;52.28
27144;BME280;14672;50.250;8.312;2022-07-10T07:56:07;99703.50;;;19.19;52.22
27144;BME280;14672;50.250;8.312;2022-07-10T07:58:33;99705.09;;;19.20;52.08
27144;BME280;14672;50.250;8.312;2022-07-10T08:00:59;99703.50;;;19.19;52.33
27144;BME280;14672;50.250;8.312;2022-07-10T08:03:25;99697.03;;;19.24;51.66
27144;BME280;14672;50.250;8.312;2022-07-10T08:05:51;99706.59;;;19.30;51.73
27144;BME280;14672;50.250;8.312;2022-07-10T08:08:16;99704.63;;;19.07;51.88
27144;BME280;14672;50.250;8.312;2022-07-10T08:10:42;99695.56;;;19.14;52.20
27144;BME280;14672;50.250;8.312;2022-07-10T08:13:08;99695.06;;;19.30;51.88
27144;BME280;14672;50.250;8.312;2022-07-10T08:15:34;99686.69;;;19.32;51.90
27144;BME280;14672;50.250;8.312;2022-07-10T08:18:01;99697.31;;;19.41;52.38
27144;BME280;14672;50.250;8.312;2022-07-10T08:20:29;99699.81;;;19.33;51.74
27144;BME280;14672;50.250;8.312;2022-07-10T08:22:57;99693.75;;;19.16;52.15
27144;BME280;14672;50.250;8.312;2022-07-10T08:25:23;99703.31;;;19.08;52.03
27144;BME280;14672;50.250;8.312;2022-07-10T08:27:50;99694.25;;;19.15;52.08
27144;BME280;14672;50.250;8.312;2022-07-10T08:30:16;99694.16;;;19.24;51.77
27144;BME280;14672;50.250;8.312;2022-07-10T08:32:42;99679.47;;;19.22;51.83
27144;BME280;14672;50.250;8.312;2022-07-10T08:35:09;99682.53;;;19.33;51.74
27144;BME280;14672;50.250;8.312;2022-07-10T08:37:40;99690.47;;;19.38;51.63
27144;BME280;14672;50.250;8.312;2022-07-10T08:40:12;99685.19;;;19.37;51.46
27144;BME280;14672;50.250;8.312;2022-07-10T08:42:40;99687.88;;;19.40;51.83
27144;BME280;14672;50.250;8.312;2022-07-10T08:45:07;99691.53;;;19.41;51.96
27144;BME280;14672;50.250;8.312;2022-07-10T08:47:37;99686.78;;;19.38;52.26
27144;BME280;14672;50.250;8.312;2022-07-10T08:50:05;99690.47;;;19.38;51.54
27144;BME280;14672;50.250;8.312;2022-07-10T08:55:26;99689.78;;;19.29;51.63
27144;BME280;14672;50.250;8.312;2022-07-10T08:57:54;99688.97;;;19.28;52.48
27144;BME280;14672;50.250;8.312;2022-07-10T09:00:23;99690.97;;;19.37;52.45
27144;BME280;14672;50.250;8.312;2022-07-10T09:02:49;99681.31;;;19.40;52.23
27144;BME280;14672;50.250;8.312;2022-07-10T09:05:14;99678.03;;;19.32;51.75
27144;BME280;14672;50.250;8.312;2022-07-10T09:07:40;99676.47;;;19.46;51.21
27144;BME280;14672;50.250;8.312;2022-07-10T09:10:11;99673.06;;;19.62;51.14
27144;BME280;14672;50.250;8.312;2022-07-10T09:15:28;99665.94;;;19.78;50.94
27144;BME280;14672;50.250;8.312;2022-07-10T09:18:03;99668.59;;;19.81;50.75
27144;BME280;14672;50.250;8.312;2022-07-10T09:20:34;99670.19;;;19.82;51.54
27144;BME280;14672;50.250;8.312;2022-07-10T09:25:46;99659.81;;;19.90;49.41
27144;BME280;14672;50.250;8.312;2022-07-10T09:28:18;99669.53;;;19.93;48.23
27144;BME280;14672;50.250;8.312;2022-07-10T09:30:45;99664.22;;;19.86;48.31
27144;BME280;14672;50.250;8.312;2022-07-10T09:33:27;99672.13;;;19.91;48.78
27144;BME280;14672;50.250;8.312;2022-07-10T09:36:09;99669.41;;;20.02;49.33
27144;BME280;14672;50.250;8.312;2022-07-10T09:41:31;99676.38;;;20.15;48.89
27144;BME280;14672;50.250;8.312;2022-07-10T09:44:03;99667.47;;;20.13;47.87
27144;BME280;14672;50.250;8.312;2022-07-10T09:46:32;99670.56;;;20.10;48.12
27144;BME280;14672;50.250;8.312;2022-07-10T09:49:05;99667.38;;;20.08;48.42
27144;BME280;14672;50.250;8.312;2022-07-10T09:51:35;99668.75;;;20.12;48.01
27144;BME280;14672;50.250;8.312;2022-07-10T09:54:05;99670.75;;;20.06;48.23
27144;BME280;14672;50.250;8.312;2022-07-10T09:56:47;99654.91;;;20.16;48.52
27144;BME280;14672;50.250;8.312;2022-07-10T09:59:19;99652.38;;;20.24;47.97
27144;BME280;14672;50.250;8.312;2022-07-10T10:01:50;99648.91;;;20.20;47.50
27144;BME280;14672;50.250;8.312;2022-07-10T10:04:22;99647.28;;;20.34;48.76
27144;BME280;14672;50.250;8.312;2022-07-10T10:06:55;99645.09;;;20.49;47.88
27144;BME280;14672;50.250;8.312;2022-07-10T10:09:24;99640.53;;;20.42;46.58
27144;BME280;14672;50.250;8.312;2022-07-10T10:12:04;99628.09;;;20.56;47.29
27144;BME280;14672;50.250;8.312;2022-07-10T10:14:33;99638.69;;;20.65;46.34
27144;BME280;14672;50.250;8.312;2022-07-10T10:17:00;99631.44;;;20.75;46.62
27144;BME280;14672;50.250;8.312;2022-07-10T10:19:30;99623.94;;;20.89;46.44
27144;BME280;14672;50.250;8.312;2022-07-10T10:22:18;99626.44;;;21.01;47.59
27144;BME280;14672;50.250;8.312;2022-07-10T10:24:44;99629.09;;;21.10;46.91
27144;BME280;14672;50.250;8.312;2022-07-10T10:27:11;99622.38;;;21.19;46.13
27144;BME280;14672;50.250;8.312;2022-07-10T10:29:37;99622.13;;;21.23;46.43
27144;BME280;14672;50.250;8.312;2022-07-10T10:32:06;99619.84;;;21.32;46.32
27144;BME280;14672;50.250;8.312;2022-07-10T10:34:51;99618.25;;;21.00;45.10
27144;BME280;14672;50.250;8.312;2022-07-10T10:39:56;99606.22;;;21.38;46.44
27144;BME280;14672;50.250;8.312;2022-07-10T10:42:43;99612.59;;;21.48;45.02
27144;BME280;14672;50.250;8.312;2022-07-10T10:45:32;99604.72;;;21.48;44.92
27144;BME280;14672;50.250;8.312;2022-07-10T10:48:06;99602.34;;;21.47;44.30
27144;BME280;14672;50.250;8.312;2022-07-10T10:50:53;99598.25;;;21.65;45.15
27144;BME280;14672;50.250;8.312;2022-07-10T10:53:25;99597.00;;;21.77;44.33
27144;BME280;14672;50.250;8.312;2022-07-10T10:58:39;99594.94;;;21.88;44.84
27144;BME280;14672;50.250;8.312;2022-07-10T11:01:28;99596.00;;;21.91;43.91
27144;BME280;14672;50.250;8.312;2022-07-10T11:09:33;99596.38;;;22.15;44.24
27144;BME280;14672;50.250;8.312;2022-07-10T11:12:10;99591.91;;;22.14;42.19
27144;BME280;14672;50.250;8.312;2022-07-10T11:14:40;99591.69;;;22.34;42.47
27144;BME280;14672;50.250;8.312;2022-07-10T11:17:08;99597.78;;;22.47;43.46
27144;BME280;14672;50.250;8.312;2022-07-10T11:19:35;99605.75;;;22.69;43.92
27144;BME280;14672;50.250;8.312;2022-07-10T11:28:06;99604.44;;;22.98;42.71
27144;BME280;14672;50.250;8.312;2022-07-10T11:30:47;99599.97;;;22.97;42.25
27144;BME280;14672;50.250;8.312;2022-07-10T11:33:15;99610.25;;;22.98;42.30
27144;BME280;14672;50.250;8.312;2022-07-10T11:35:45;99591.28;;;23.03;42.42
27144;BME280;14672;50.250;8.312;2022-07-10T11:38:12;99601.56;;;23.20;42.10
27144;BME280;14672;50.250;8.312;2022-07-10T11:40:38;99581.25;;;23.20;41.64
27144;BME280;14672;50.250;8.312;2022-07-10T11:43:04;99581.00;;;23.24;41.85
27144;BME280;14672;50.250;8.312;2022-07-10T11:45:33;99591.00;;;23.28;41.57
27144;BME280;14672;50.250;8.312;2022-07-10T11:48:04;99601.00;;;23.38;41.41
27144;BME280;14672;50.250;8.312;2022-07-10T11:50:38;99597.56;;;23.34;41.55
27144;BME280;14672;50.250;8.312;2022-07-10T11:53:05;99593.91;;;23.28;41.20
27144;BME280;14672;50.250;8.312;2022-07-10T11:55:32;99594.41;;;23.38;41.62
27144;BME280;14672;50.250;8.312;2022-07-10T11:58:19;99590.22;;;23.45;41.39
27144;BME280;14672;50.250;8.312;2022-07-10T12:01:03;99593.88;;;23.45;42.44
27144;BME280;14672;50.250;8.312;2022-07-10T12:03:32;99595.44;;;23.63;41.52
27144;BME280;14672;50.250;8.312;2022-07-10T12:06:06;99594.09;;;23.75;42.00
27144;BME280;14672;50.250;8.312;2022-07-10T12:08:46;99591.41;;;23.88;41.49
27144;BME280;14672;50.250;8.312;2022-07-10T12:11:17;99598.06;;;23.72;41.18
27144;BME280;14672;50.250;8.312;2022-07-10T12:13:45;99606.44;;;23.81;41.54
27144;BME280;14672;50.250;8.312;2022-07-10T12:16:12;99600.63;;;23.81;41.55
27144;BME280;14672;50.250;8.312;2022-07-10T12:18:40;99603.84;;;23.72;41.09
27144;BME280;14672;50.250;8.312;2022-07-10T12:21:09;99611.50;;;23.75;41.94
27144;BME280;14672;50.250;8.312;2022-07-10T12:23:36;99609.94;;;23.68;41.45
27144;BME280;14672;50.250;8.312;2022-07-10T12:26:08;99607.03;;;23.57;41.93
27144;BME280;14672;50.250;8.312;2022-07-10T12:28:55;99606.25;;;23.62;41.88
27144;BME280;14672;50.250;8.312;2022-07-10T12:31:23;99603.88;;;23.66;42.28
27144;BME280;14672;50.250;8.312;2022-07-10T12:33:55;99594.94;;;23.48;42.04
27144;BME280;14672;50.250;8.312;2022-07-10T12:36:24;99589.91;;;23.54;41.64
27144;BME280;14672;50.250;8.312;2022-07-10T12:38:57;99583.31;;;23.53;41.62
27144;BME280;14672;50.250;8.312;2022-07-10T12:41:24;99590.44;;;23.63;41.86
27144;BME280;14672;50.250;8.312;2022-07-10T12:43:53;99586.97;;;23.76;41.90
27144;BME280;14672;50.250;8.312;2022-07-10T12:46:24;99592.78;;;23.76;42.45
27144;BME280;14672;50.250;8.312;2022-07-10T12:49:07;99584.22;;;24.00;42.91
27144;BME280;14672;50.250;8.312;2022-07-10T12:51:46;99587.06;;;24.11;42.28
27144;BME280;14672;50.250;8.312;2022-07-10T12:56:59;99587.09;;;24.06;42.19
27144;BME280;14672;50.250;8.312;2022-07-10T12:59:27;99576.34;;;23.95;42.05
27144;BME280;14672;50.250;8.312;2022-07-10T13:01:54;99591.56;;;24.12;41.80
27144;BME280;14672;50.250;8.312;2022-07-10T13:04:25;99587.19;;;23.83;41.14
27144;BME280;14672;50.250;8.312;2022-07-10T13:06:53;99592.78;;;23.76;41.32
27144;BME280;14672;50.250;8.312;2022-07-10T13:09:25;99593.28;;;23.80;41.94
27144;BME280;14672;50.250;8.312;2022-07-10T13:11:53;99591.47;;;23.71;42.05
27144;BME280;14672;50.250;8.312;2022-07-10T13:14:20;99593.28;;;23.80;42.65
27144;BME280;14672;50.250;8.312;2022-07-10T13:16:47;99600.91;;;23.77;41.99
27144;BME280;14672;50.250;8.312;2022-07-10T13:19:13;99602.50;;;23.73;42.77
27144;BME280;14672;50.250;8.312;2022-07-10T13:21:39;99602.00;;;23.69;42.63
27144;BME280;14672;50.250;8.312;2022-07-10T13:24:05;99605.22;;;23.54;42.36
27144;BME280;14672;50.250;8.312;2022-07-10T13:26:32;99598.13;;;23.44;42.87
27144;BME280;14672;50.250;8.312;2022-07-10T13:28:58;99598.66;;;23.43;43.35
27144;BME280;14672;50.250;8.312;2022-07-10T13:31:25;99609.19;;;23.46;43.44
27144;BME280;14672;50.250;8.312;2022-07-10T13:33:51;99605.47;;;23.39;43.71
27144;BME280;14672;50.250;8.312;2022-07-10T13:36:17;99612.31;;;23.42;43.71